SAST,Max TemperatureF,Mean TemperatureF,Min TemperatureF,Max Dew PointF,MeanDew PointF,Min DewpointF,Max Humidity, Mean Humidity, Min Humidity, Max Sea Level PressureIn, Mean Sea Level PressureIn, Min Sea Level PressureIn, Max VisibilityMiles, Mean VisibilityMiles, Min VisibilityMiles, Max Wind SpeedMPH, Mean Wind SpeedMPH, Max Gust SpeedMPH,PrecipitationIn, CloudCover, Events, WindDirDegrees
2013-3-1,72,63,54,57,54,52,94,71,40,30.18,30.15,30.09,12,8,6,13,5,,0.00,2,,99
2013-3-2,73,64,55,61,56,50,88,73,54,30.18,30.14,30.09,19,8,6,12,5,,0.00,1,,86
2013-3-3,77,66,54,61,56,49,88,71,41,30.18,30.15,30.12,19,14,12,16,5,,0.00,,,83
2013-3-4,86,70,55,66,60,52,88,68,37,30.12,29.95,29.80,12,11,6,8,4,,0.00,,,92
2013-3-5,80,72,64,68,63,53,94,73,40,29.98,29.90,29.80,12,8,6,18,8,,0.00,5,,230
2013-3-6,77,71,65,66,63,59,94,76,57,29.98,29.91,29.86,12,7,0,17,6,,0.00,5,,240
2013-3-7,76,68,59,61,58,54,83,71,50,29.95,29.87,29.80,12,8,6,13,6,,0.00,4,,238
2013-3-8,83,72,61,63,58,54,94,73,35,30.04,29.80,29.68,12,7,2,20,8,24,0.12,5,Rain,264
2013-3-9,68,62,57,57,53,49,94,70,44,30.30,30.22,30.06,12,8,3,13,9,,0.00,5,Rain,272
2013-3-10,72,62,52,58,53,48,88,68,40,30.30,30.21,30.15,12,8,6,22,9,31,0.00,1,,92
2013-3-11,78,66,53,65,58,52,94,79,43,30.15,30.06,29.95,12,9,4,14,5,,0.00,6,,68
2013-3-12,77,68,58,66,62,57,94,84,63,30.12,29.98,29.89,12,5,0,12,6,,0.00,2,Fog,265
2013-3-13,78,70,63,66,64,61,94,82,63,30.18,30.12,30.09,12,7,6,17,7,,0.00,5,Rain,92
2013-3-14,80,70,59,64,61,58,94,76,48,30.09,29.94,29.80,12,8,1,15,6,,0.00,2,,101
2013-3-15,82,70,59,64,60,57,94,74,45,29.89,29.75,29.68,12,8,5,23,9,,0.00,3,,255
2013-3-16,75,70,62,64,60,55,94,75,62,30.04,29.96,29.89,19,7,4,15,10,,0.00,6,Rain,263
2013-3-17,78,68,57,63,59,54,94,77,51,30.01,29.98,29.92,12,8,6,13,4,,0.00,3,,122
2013-3-18,77,68,58,63,58,53,94,72,44,30.01,29.96,29.89,19,8,4,15,6,,0.02,5,Rain,282
2013-3-19,72,66,57,59,55,54,88,71,44,30.12,30.06,30.01,12,8,6,15,10,,0.00,3,,251
2013-3-20,80,64,49,60,51,46,93,61,28,30.09,29.98,29.89,12,12,12,9,5,,0.00,,,69
2013-3-21,76,66,56,63,56,48,94,71,53,30.01,29.94,29.86,19,10,6,14,5,,0.00,1,,286
2013-3-22,83,68,54,63,57,50,94,75,31,29.95,29.85,29.77,19,8,0,12,4,,0.01,2,Fog,321
2013-3-23,65,62,57,62,56,54,94,80,61,30.12,30.02,29.86,19,7,2,23,7,,0.08,6,Rain,289
2013-3-24,67,60,53,55,53,50,94,74,56,30.18,30.08,30.04,19,8,6,12,4,,0.00,5,,293
2013-3-25,71,60,50,61,56,48,94,79,52,30.20,30.15,30.09,19,8,6,15,6,,0.00,4,,83
2013-3-26,83,69,55,64,59,54,94,69,37,30.12,29.96,29.80,12,10,6,26,7,43,0.00,4,Rain-Thunderstorm,86
2013-3-27,90,75,60,64,58,52,88,58,26,29.92,29.81,29.72,19,10,6,21,10,22,0.08,3,Rain-Thunderstorm,36
2013-3-28,73,64,55,62,58,53,94,78,59,30.15,29.98,29.89,12,8,6,12,5,,0.00,5,,88
2013-3-29,63,60,58,59,57,54,94,88,77,30.25,30.21,30.15,12,5,1,12,5,,0.08,7,Rain,296
2013-3-30,63,60,57,59,57,55,94,87,79,30.24,30.21,30.18,12,6,4,24,10,36,0.01,7,Rain,88
2013-3-31,66,62,59,61,59,56,94,89,74,30.18,30.03,29.86,12,6,4,13,10,,0.08,6,Fog-Rain,99